createdAt,value
2023-04-18T05:03:11.771Z,42.54
2023-04-18T05:04:13.039Z,41.51
2023-04-18T05:05:13.234Z,41.43
2023-04-18T05:06:11.730Z,41.39
2023-04-18T05:07:12.761Z,41.35
2023-04-18T05:08:12.787Z,41.36
2023-04-18T05:09:12.822Z,41.31
2023-04-18T05:10:11.869Z,41.35
2023-04-18T05:11:12.852Z,41.31
2023-04-18T05:12:11.858Z,41.32
2023-04-18T05:13:11.867Z,41.35
2023-04-18T05:14:13.357Z,41.34
2023-04-18T05:15:11.951Z,41.34
2023-04-18T05:16:11.994Z,41.31
2023-04-18T05:17:12.054Z,41.34
2023-04-18T05:18:13.105Z,41.33
2023-04-18T05:19:13.197Z,41.32
2023-04-18T05:20:12.233Z,41.35
2023-04-18T05:21:12.271Z,41.35
2023-04-18T05:22:12.312Z,41.32
2023-04-18T05:23:12.377Z,41.35
2023-04-18T05:24:12.564Z,41.38
2023-04-18T05:25:12.541Z,41.35
2023-04-18T05:26:13.520Z,41.33
2023-04-18T05:27:13.567Z,41.33
2023-04-18T05:28:12.611Z,41.36
2023-04-18T05:29:13.689Z,41.36
2023-04-18T05:30:13.701Z,41.37
2023-04-18T05:31:13.876Z,41.35
2023-04-18T05:32:13.763Z,41.34
2023-04-18T05:33:13.823Z,41.37
2023-04-18T05:34:14.038Z,41.36
2023-04-18T05:35:12.939Z,41.36
2023-04-18T05:36:12.948Z,41.36
2023-04-18T05:37:12.982Z,41.35
2023-04-18T05:38:14.054Z,41.37
2023-04-18T05:39:14.072Z,41.37
2023-04-18T05:40:13.141Z,41.36
2023-04-18T05:41:14.164Z,41.36
2023-04-18T05:42:14.179Z,41.34
2023-04-18T05:43:13.245Z,41.33
2023-04-18T05:44:14.278Z,41.34
2023-04-18T05:45:14.317Z,41.34
2023-04-18T05:46:13.362Z,41.34
2023-04-18T05:47:14.373Z,41.33
2023-04-18T05:48:13.424Z,41.32
2023-04-18T05:49:14.453Z,41.31
2023-04-18T05:50:14.491Z,41.30
2023-04-18T05:51:13.576Z,41.31
2023-04-18T05:52:14.573Z,41.29
2023-04-18T05:53:14.583Z,41.31
2023-04-18T05:54:13.971Z,41.28
2023-04-18T05:55:13.666Z,41.27
2023-04-18T05:56:14.715Z,41.25
2023-04-18T05:57:13.766Z,41.25
2023-04-18T05:58:13.801Z,41.26
2023-04-18T05:59:13.837Z,41.25
2023-04-18T06:00:13.896Z,41.26
2023-04-18T06:01:14.941Z,41.25
2023-04-18T06:02:15.067Z,41.21
2023-04-18T06:03:14.159Z,41.22
2023-04-18T06:04:15.332Z,41.22
2023-04-18T06:05:15.453Z,41.21
2023-04-18T06:06:15.406Z,41.37
2023-04-18T06:07:15.132Z,41.23
2023-04-18T06:08:14.188Z,41.22
2023-04-18T06:09:15.785Z,41.22
2023-04-18T06:10:14.329Z,41.27
2023-04-18T06:11:15.343Z,41.39
2023-04-18T06:12:14.954Z,41.43
2023-04-18T06:13:15.439Z,41.42
2023-04-18T06:14:15.800Z,41.48
2023-04-18T06:15:15.548Z,41.43
2023-04-18T06:16:14.634Z,41.55
2023-04-18T06:17:15.633Z,41.63
2023-04-18T06:18:15.708Z,41.71
2023-04-18T06:19:15.713Z,41.75
2023-04-18T06:20:15.791Z,41.74
2023-04-18T06:21:14.811Z,41.76
2023-04-18T06:22:14.914Z,42.04
2023-04-18T06:23:15.905Z,41.93
2023-04-18T06:24:16.325Z,42.07
2023-04-18T06:25:16.004Z,42.24
2023-04-18T06:26:16.017Z,42.32
2023-04-18T06:27:27.944Z,42.35
2023-04-18T06:28:16.061Z,42.37
2023-04-18T06:29:16.048Z,42.35
2023-04-18T06:30:16.066Z,42.43
2023-04-18T06:31:16.047Z,42.52
2023-04-18T06:32:16.000Z,42.66
2023-04-18T06:33:16.015Z,42.64
2023-04-18T06:34:16.302Z,42.81
2023-04-18T06:35:14.997Z,42.85
2023-04-18T06:36:16.003Z,42.92
2023-04-18T06:37:16.019Z,42.86
2023-04-18T06:38:15.159Z,43.07
2023-04-18T06:39:15.132Z,43.02
2023-04-18T06:40:15.209Z,43.24
2023-04-18T06:41:16.256Z,43.29
2023-04-18T06:42:15.314Z,43.26
2023-04-18T06:43:16.372Z,43.59
2023-04-18T06:44:16.457Z,43.54
2023-04-18T06:45:16.485Z,43.87
2023-04-18T06:46:16.558Z,44.60
2023-04-18T06:47:16.516Z,44.20
2023-04-18T06:48:16.561Z,44.17
2023-04-18T06:49:15.597Z,44.10
2023-04-18T06:50:16.665Z,43.88
2023-04-18T06:51:15.692Z,43.81
2023-04-18T06:52:16.722Z,43.81
2023-04-18T06:53:16.763Z,43.76
2023-04-18T06:54:16.842Z,43.78
2023-04-18T06:55:17.286Z,43.82
2023-04-18T06:56:16.881Z,43.79
2023-04-18T06:57:16.929Z,43.78
2023-04-18T06:58:15.942Z,43.79
2023-04-18T06:59:15.976Z,43.82
2023-04-18T07:00:17.091Z,43.76
2023-04-18T07:01:17.119Z,44.10
2023-04-18T07:02:17.154Z,44.32
2023-04-18T07:03:17.309Z,44.20
2023-04-18T07:04:17.419Z,44.12
2023-04-18T07:05:17.297Z,44.27
2023-04-18T07:06:16.300Z,44.37
2023-04-18T07:07:17.390Z,44.68
2023-04-18T07:08:17.366Z,44.57
2023-04-18T07:09:17.381Z,44.66
2023-04-18T07:10:17.455Z,44.49
2023-04-18T07:11:17.394Z,44.52
2023-04-18T07:12:17.480Z,44.45
2023-04-18T07:13:16.562Z,44.52
2023-04-18T07:14:17.641Z,44.52
2023-04-18T07:15:16.671Z,44.55
2023-04-18T07:16:17.837Z,44.71
2023-04-18T07:17:17.899Z,44.54
2023-04-18T07:18:30.166Z,44.68
2023-04-18T07:19:17.824Z,45.00
2023-04-18T07:20:17.821Z,44.89
2023-04-18T07:21:16.819Z,44.96
2023-04-18T07:22:17.796Z,45.08
2023-04-18T07:23:16.792Z,45.08
2023-04-18T07:24:16.949Z,45.00
2023-04-18T07:25:16.797Z,44.94
2023-04-18T07:26:17.810Z,45.18
2023-04-18T07:27:16.776Z,45.37
2023-04-18T07:28:17.789Z,45.51
2023-04-18T07:29:17.836Z,45.43
2023-04-18T07:30:17.758Z,45.47
2023-04-18T07:31:17.774Z,45.48
2023-04-18T07:32:16.742Z,45.53
2023-04-18T07:33:17.764Z,45.58
2023-04-18T07:34:17.732Z,45.54
2023-04-18T07:35:16.721Z,45.54
2023-04-18T07:36:17.794Z,45.66
2023-04-18T07:37:17.814Z,45.81
2023-04-18T07:38:16.755Z,45.96
2023-04-18T07:39:17.727Z,45.97
2023-04-18T07:40:16.785Z,45.98
2023-04-18T07:41:16.690Z,46.08
2023-04-18T07:42:17.027Z,45.96
2023-04-18T07:43:18.721Z,46.16
2023-04-18T07:44:16.741Z,46.18
2023-04-18T07:45:17.651Z,46.29
2023-04-18T07:46:16.710Z,46.20
2023-04-18T07:47:22.347Z,46.54
2023-04-18T07:48:17.696Z,46.40
2023-04-18T07:49:17.665Z,46.46
2023-04-18T07:50:17.644Z,46.29
2023-04-18T07:51:16.793Z,46.37
2023-04-18T07:52:17.617Z,46.50
2023-04-18T07:53:17.602Z,46.32
2023-04-18T07:54:17.602Z,46.44
2023-04-18T07:55:16.593Z,47.10
2023-04-18T07:56:17.612Z,46.78
2023-04-18T07:57:17.594Z,46.83
2023-04-18T07:58:17.873Z,46.61
2023-04-18T07:59:17.588Z,46.73
2023-04-18T08:00:16.643Z,46.53
2023-04-18T08:01:16.573Z,46.50
2023-04-18T08:02:17.703Z,46.52
2023-04-18T08:03:17.814Z,46.53
2023-04-18T08:04:16.741Z,46.43
2023-04-18T08:05:16.731Z,46.55
2023-04-18T08:06:16.617Z,46.42
2023-04-18T08:07:17.549Z,46.54
2023-04-18T08:08:16.676Z,46.43
2023-04-18T08:09:16.712Z,46.43
2023-04-18T08:10:17.512Z,46.34
2023-04-18T08:11:17.562Z,46.41
2023-04-18T08:12:16.474Z,46.43
2023-04-18T08:13:17.487Z,46.49
2023-04-18T08:14:16.596Z,46.37
2023-04-18T08:15:17.475Z,46.41
2023-04-18T08:16:17.516Z,46.63
2023-04-18T08:17:16.444Z,46.59
2023-04-18T08:18:17.428Z,46.51
2023-04-18T08:19:17.433Z,46.47
2023-04-18T08:20:16.423Z,46.51
2023-04-18T08:21:17.445Z,46.48
2023-04-18T08:22:16.414Z,46.44
2023-04-18T08:23:17.424Z,46.52
2023-04-18T08:24:17.416Z,46.44
2023-04-18T08:25:16.392Z,46.34
2023-04-18T08:26:16.384Z,46.41
2023-04-18T08:27:17.396Z,46.60
2023-04-18T08:28:16.357Z,46.57
2023-04-18T08:29:17.398Z,46.60
2023-04-18T08:30:17.553Z,46.60
2023-04-18T08:31:16.407Z,46.55
2023-04-18T08:32:16.329Z,46.49
2023-04-18T08:33:17.340Z,46.46
2023-04-18T08:34:17.357Z,46.52
2023-04-18T08:35:16.323Z,46.52
2023-04-18T08:36:16.319Z,46.44
2023-04-18T08:37:17.317Z,46.49
2023-04-18T08:38:17.392Z,46.47
2023-04-18T08:39:17.293Z,46.53
2023-04-18T08:40:17.319Z,46.62
2023-04-18T08:41:17.309Z,46.84
2023-04-18T08:42:17.293Z,46.85
2023-04-18T08:43:17.262Z,46.77
2023-04-18T08:44:17.256Z,46.76
2023-04-18T08:45:17.253Z,46.69
2023-04-18T08:46:17.485Z,46.81
2023-04-18T08:47:16.247Z,46.69
2023-04-18T08:48:16.306Z,46.64
2023-04-18T08:49:17.457Z,46.67
2023-04-18T08:50:17.331Z,46.70
2023-04-18T08:51:17.227Z,46.64
2023-04-18T08:52:17.205Z,46.65
2023-04-18T08:53:17.201Z,46.62
2023-04-18T08:54:17.202Z,46.62
2023-04-18T08:55:17.282Z,46.62
2023-04-18T08:56:16.182Z,46.59
2023-04-18T08:57:17.171Z,46.61
2023-04-18T08:58:16.809Z,46.55
2023-04-18T08:59:17.166Z,46.58
2023-04-18T09:00:16.163Z,46.60
2023-04-18T09:01:17.165Z,46.57
2023-04-18T09:02:17.221Z,46.60
2023-04-18T09:03:16.166Z,46.62
2023-04-18T09:04:16.192Z,46.61
2023-04-18T09:05:16.176Z,46.62
2023-04-18T09:06:16.181Z,46.61
2023-04-18T09:07:17.165Z,46.61
2023-04-18T09:08:16.169Z,46.61
2023-04-18T09:09:16.211Z,46.63
2023-04-18T09:10:17.245Z,46.60
2023-04-18T09:11:16.275Z,46.63
2023-04-18T09:12:17.303Z,46.66
2023-04-18T09:13:17.300Z,46.64
2023-04-18T09:14:16.348Z,46.62
2023-04-18T09:15:17.340Z,46.63
2023-04-18T09:16:17.392Z,46.58
2023-04-18T09:17:16.358Z,46.62
2023-04-18T09:18:17.398Z,46.63
2023-04-18T09:19:16.570Z,46.63
2023-04-18T09:20:17.471Z,46.62
2023-04-18T09:21:17.479Z,46.64
2023-04-18T09:22:16.486Z,46.63
2023-04-18T09:23:16.542Z,46.61
2023-04-18T09:24:16.596Z,46.65
2023-04-18T09:25:16.674Z,46.66
2023-04-18T09:26:17.729Z,46.65
2023-04-18T09:27:17.761Z,46.69
2023-04-18T09:28:17.783Z,46.67
2023-04-18T09:29:17.845Z,46.67
2023-04-18T09:30:16.870Z,46.67
2023-04-18T09:31:16.921Z,46.66
2023-04-18T09:32:16.930Z,46.67
2023-04-18T09:33:17.982Z,46.72
2023-04-18T09:34:18.239Z,46.73
2023-04-18T09:35:18.081Z,46.76
2023-04-18T09:36:18.096Z,46.77
2023-04-18T09:37:18.137Z,46.76
2023-04-18T09:38:18.178Z,46.80
2023-04-18T09:39:18.205Z,46.80
2023-04-18T09:40:18.232Z,46.75
2023-04-18T09:41:21.230Z,46.81
2023-04-18T09:42:18.245Z,46.82
2023-04-18T09:43:18.220Z,46.84
2023-04-18T09:44:18.522Z,46.84
2023-04-18T09:45:18.209Z,46.87
2023-04-18T09:46:18.328Z,46.87
2023-04-18T09:47:17.337Z,46.91
2023-04-18T09:48:18.195Z,46.89
2023-04-18T09:49:17.633Z,46.88
2023-04-18T09:50:18.353Z,46.90
2023-04-18T09:51:18.281Z,46.89
2023-04-18T09:52:17.350Z,46.97
2023-04-18T09:53:20.150Z,47.00
2023-04-18T09:54:17.151Z,47.01
2023-04-18T09:55:17.159Z,47.00
2023-04-18T09:56:17.135Z,46.99
2023-04-18T09:57:18.133Z,47.02
2023-04-18T09:58:17.131Z,47.03
2023-04-18T09:59:20.966Z,47.06
2023-04-18T10:00:18.114Z,47.03
2023-04-18T10:01:18.129Z,47.04
2023-04-18T10:02:17.251Z,47.00
2023-04-18T10:03:18.275Z,47.03
2023-04-18T10:04:18.239Z,47.07
2023-04-18T10:05:19.542Z,47.04
2023-04-18T10:06:17.149Z,47.11
2023-04-18T10:07:18.099Z,47.10
2023-04-18T10:08:17.065Z,47.10
2023-04-18T10:09:18.046Z,47.09
2023-04-18T10:10:18.029Z,47.10
2023-04-18T10:11:19.280Z,47.11
2023-04-18T10:12:17.049Z,47.07
2023-04-18T10:13:17.015Z,47.14
2023-04-18T10:14:18.263Z,47.14
2023-04-18T10:15:18.003Z,47.13
2023-04-18T10:16:18.033Z,47.12
2023-04-18T10:17:16.991Z,47.15
2023-04-18T10:18:17.009Z,47.14
2023-04-18T10:19:16.977Z,47.11
2023-04-18T10:20:16.970Z,47.14
2023-04-18T10:21:17.989Z,47.17
2023-04-18T10:22:16.999Z,47.16
2023-04-18T10:23:17.945Z,47.15
2023-04-18T10:24:17.940Z,47.16
2023-04-18T10:25:16.936Z,47.14
2023-04-18T10:26:17.937Z,47.14
2023-04-18T10:27:17.931Z,47.19
2023-04-18T10:28:17.920Z,47.15
2023-04-18T10:29:17.928Z,47.17
2023-04-18T10:30:17.919Z,47.14
2023-04-18T10:31:17.953Z,47.17
2023-04-18T10:32:16.977Z,47.17
2023-04-18T10:33:27.957Z,47.18
2023-04-18T10:34:18.027Z,47.15
2023-04-18T10:35:16.885Z,47.21
2023-04-18T10:36:17.875Z,47.21
2023-04-18T10:37:17.902Z,47.18
2023-04-18T10:38:17.884Z,47.19
2023-04-18T10:39:17.829Z,47.15
2023-04-18T10:40:16.829Z,47.13
2023-04-18T10:41:16.839Z,47.23
2023-04-18T10:42:17.850Z,47.15
2023-04-18T10:43:17.825Z,47.16
2023-04-18T10:44:17.863Z,47.21
2023-04-18T10:45:17.809Z,47.22
2023-04-18T10:46:30.920Z,47.20
2023-04-18T10:47:17.919Z,47.19
2023-04-18T10:48:17.836Z,47.18
2023-04-18T10:49:16.784Z,47.20
2023-04-18T10:50:17.756Z,47.24
2023-04-18T10:51:17.777Z,47.19
2023-04-18T10:52:17.870Z,47.17
2023-04-18T10:53:17.745Z,46.98
2023-04-18T10:54:16.836Z,46.96
2023-04-18T10:55:17.760Z,46.92
2023-04-18T10:56:17.737Z,46.86
2023-04-18T10:57:17.739Z,46.80
2023-04-18T10:58:17.719Z,46.78
2023-04-18T10:59:16.702Z,46.76
2023-04-18T11:00:17.729Z,46.72
2023-04-18T11:01:17.724Z,46.70
2023-04-18T11:02:17.775Z,46.70
2023-04-18T11:03:16.779Z,46.67
2023-04-18T11:04:17.990Z,46.66
2023-04-18T11:05:17.774Z,46.65
2023-04-18T11:06:16.666Z,46.66
2023-04-18T11:07:17.869Z,46.67
2023-04-18T11:08:16.666Z,46.62
2023-04-18T11:09:17.696Z,46.65
2023-04-18T11:10:16.718Z,46.72
2023-04-18T11:11:16.649Z,46.67
2023-04-18T11:12:17.611Z,46.66
2023-04-18T11:13:17.617Z,46.68
2023-04-18T11:14:16.772Z,46.68
2023-04-18T11:15:17.682Z,46.70
2023-04-18T11:16:17.671Z,46.71
2023-04-18T11:17:17.578Z,46.74
2023-04-18T11:18:17.596Z,46.71
2023-04-18T11:19:17.567Z,46.72
2023-04-18T11:20:16.586Z,46.70
2023-04-18T11:21:16.569Z,46.72
2023-04-18T11:22:16.572Z,46.74
2023-04-18T11:23:17.537Z,46.81
2023-04-18T11:24:17.532Z,46.77
2023-04-18T11:25:16.551Z,46.80
2023-04-18T11:26:17.576Z,46.79
2023-04-18T11:27:17.533Z,46.80
2023-04-18T11:28:17.519Z,46.81
2023-04-18T11:29:17.506Z,46.85
2023-04-18T11:30:16.519Z,46.86
2023-04-18T11:31:17.517Z,46.81
2023-04-18T11:32:17.624Z,46.80
2023-04-18T11:33:17.659Z,46.80
2023-04-18T11:34:17.640Z,46.82
2023-04-18T11:35:17.673Z,46.81
2023-04-18T11:36:16.691Z,46.97
2023-04-18T11:37:17.901Z,47.07
2023-04-18T11:38:17.728Z,47.08
2023-04-18T11:39:17.762Z,46.98
2023-04-18T11:40:16.806Z,47.02
2023-04-18T11:41:17.840Z,47.00
2023-04-18T11:42:17.896Z,47.01
2023-04-18T11:43:17.875Z,47.01
2023-04-18T11:44:17.885Z,47.04
2023-04-18T11:45:16.914Z,47.01
2023-04-18T11:46:17.013Z,47.04
2023-04-18T11:47:17.970Z,47.05
2023-04-18T11:48:17.018Z,47.11
2023-04-18T11:49:17.037Z,47.10
2023-04-18T11:50:17.126Z,47.17
2023-04-18T11:51:17.133Z,47.20
2023-04-18T11:52:17.173Z,47.21
2023-04-18T11:53:17.239Z,47.27
2023-04-18T11:54:18.319Z,47.26
2023-04-18T11:55:18.383Z,47.29
2023-04-18T11:56:17.420Z,47.28
2023-04-18T11:57:17.488Z,47.31
2023-04-18T11:58:17.556Z,47.37
2023-04-18T11:59:18.566Z,47.33
2023-04-18T12:00:17.566Z,47.38
2023-04-18T12:01:18.584Z,47.53
2023-04-18T12:02:18.689Z,47.46
2023-04-18T12:03:17.832Z,47.47
2023-04-18T12:04:19.159Z,47.61
2023-04-18T12:05:18.836Z,47.65
2023-04-18T12:06:18.593Z,47.49
2023-04-18T12:07:17.595Z,47.50
2023-04-18T12:08:18.602Z,47.50
2023-04-18T12:09:18.580Z,47.47
2023-04-18T12:10:17.589Z,47.45
2023-04-18T12:11:17.579Z,47.45
2023-04-18T12:12:17.579Z,47.43
2023-04-18T12:13:18.573Z,47.45
2023-04-18T12:14:18.579Z,47.43
2023-04-18T12:15:18.608Z,47.45
2023-04-18T12:16:17.674Z,47.47
2023-04-18T12:17:18.581Z,47.46
2023-04-18T12:18:18.547Z,47.46
2023-04-18T12:19:18.549Z,47.47
2023-04-18T12:20:18.570Z,47.50
2023-04-18T12:21:17.561Z,47.48
2023-04-18T12:22:17.547Z,47.47
2023-04-18T12:23:17.552Z,47.46
2023-04-18T12:24:17.549Z,47.49
2023-04-18T12:25:18.551Z,47.49
2023-04-18T12:26:18.551Z,47.48
2023-04-18T12:27:17.569Z,47.63
2023-04-18T12:28:18.603Z,47.56
2023-04-18T12:29:18.552Z,47.56
2023-04-18T12:30:18.567Z,47.55
2023-04-18T12:31:17.578Z,47.54
2023-04-18T12:32:17.554Z,47.51
2023-04-18T12:33:17.565Z,47.55
2023-04-18T12:34:18.582Z,47.50
2023-04-18T12:35:18.562Z,47.52
2023-04-18T12:36:18.575Z,47.50
2023-04-18T12:37:17.580Z,47.57
2023-04-18T12:38:17.602Z,47.53
2023-04-18T12:39:17.630Z,47.57
2023-04-18T12:40:18.630Z,47.58
2023-04-18T12:41:17.635Z,47.52
2023-04-18T12:42:18.653Z,47.56
2023-04-18T12:43:17.634Z,47.56
2023-04-18T12:44:17.694Z,47.53
2023-04-18T12:45:17.646Z,47.56
2023-04-18T12:46:18.722Z,47.59
2023-04-18T12:47:17.757Z,47.57
2023-04-18T12:48:17.638Z,47.52
2023-04-18T12:49:17.664Z,47.55
2023-04-18T12:50:18.669Z,47.57
2023-04-18T12:51:18.618Z,47.65
2023-04-18T12:52:18.625Z,47.56
2023-04-18T12:53:18.642Z,47.30
2023-04-18T12:54:17.619Z,47.43
2023-04-18T12:55:18.651Z,47.43
2023-04-18T12:56:18.687Z,47.68
2023-04-18T12:57:18.704Z,47.37
2023-04-18T12:58:18.893Z,47.41
2023-04-18T12:59:17.832Z,46.04
2023-04-18T13:00:18.891Z,46.52
2023-04-18T13:01:18.018Z,47.09
2023-04-18T13:02:19.165Z,47.36
2023-04-18T13:03:18.182Z,47.00
2023-04-18T13:05:18.190Z,46.69
2023-04-18T13:06:19.230Z,46.43
2023-04-18T13:07:18.288Z,46.45
2023-04-18T13:08:18.364Z,46.20
2023-04-18T13:09:19.373Z,46.19
2023-04-18T13:10:19.426Z,46.11
2023-04-18T13:11:19.458Z,46.16
2023-04-18T13:12:18.515Z,46.18
2023-04-18T13:13:19.548Z,46.19
2023-04-18T13:14:19.612Z,46.25
2023-04-18T13:15:18.616Z,46.22
2023-04-18T13:16:19.667Z,46.11
2023-04-18T13:17:19.742Z,46.14
2023-04-18T13:18:18.748Z,46.06
2023-04-18T13:19:18.744Z,46.05
2023-04-18T13:20:18.779Z,46.03
2023-04-18T13:21:19.795Z,46.04
2023-04-18T13:22:18.830Z,46.03
2023-04-18T13:23:19.874Z,46.00
2023-04-18T13:24:18.938Z,46.02
2023-04-18T13:25:18.926Z,45.99
2023-04-18T13:26:19.947Z,45.98
2023-04-18T13:27:18.994Z,46.00
2023-04-18T13:28:19.012Z,45.99
2023-04-18T13:29:20.024Z,46.01
2023-04-18T13:30:19.066Z,46.02
2023-04-18T13:31:20.127Z,45.97
2023-04-18T13:32:20.124Z,45.99
2023-04-18T13:33:19.124Z,46.02
2023-04-18T13:34:20.237Z,45.99
2023-04-18T13:35:20.179Z,45.99
2023-04-18T13:36:20.187Z,45.98
2023-04-18T13:37:19.224Z,45.96
2023-04-18T13:38:19.266Z,45.94
2023-04-18T13:39:20.272Z,45.94
2023-04-18T13:40:20.355Z,45.94
2023-04-18T13:41:20.437Z,45.98
2023-04-18T13:42:20.329Z,45.93
2023-04-18T13:43:19.347Z,45.92
2023-04-18T13:44:20.390Z,45.95
2023-04-18T13:45:20.482Z,45.92
2023-04-18T13:46:19.470Z,45.95
2023-04-18T13:47:20.497Z,45.98
2023-04-18T13:48:20.480Z,45.99
2023-04-18T13:49:19.510Z,45.93
2023-04-18T13:50:20.599Z,45.97
2023-04-18T13:51:19.572Z,45.92
2023-04-18T13:52:19.621Z,45.86
2023-04-18T13:53:20.678Z,45.93
2023-04-18T13:54:19.712Z,45.94
2023-04-18T13:55:20.773Z,45.83
2023-04-18T13:56:20.813Z,45.83
2023-04-18T13:57:20.868Z,45.85
2023-04-18T13:58:20.923Z,45.83
2023-04-18T13:59:20.929Z,45.77
2023-04-18T14:00:21.032Z,45.81
2023-04-18T14:01:20.066Z,45.82
2023-04-18T14:02:20.128Z,45.82
2023-04-18T14:03:20.232Z,45.84
2023-04-18T14:04:21.405Z,45.86
2023-04-18T14:05:20.156Z,45.86
2023-04-18T14:06:20.209Z,45.86
2023-04-18T14:07:20.202Z,45.88
2023-04-18T14:08:20.204Z,45.89
2023-04-18T14:09:21.249Z,45.87
2023-04-18T14:10:20.298Z,45.92
2023-04-18T14:11:20.316Z,45.91
2023-04-18T14:12:20.366Z,45.90
2023-04-18T14:13:20.392Z,45.93
2023-04-18T14:14:20.918Z,45.91
2023-04-18T14:15:21.490Z,45.95
2023-04-18T14:16:21.540Z,45.95
2023-04-18T14:17:20.605Z,45.92
2023-04-18T14:18:21.664Z,45.97
2023-04-18T14:19:20.643Z,45.97
2023-04-18T14:20:21.678Z,45.98
2023-04-18T14:21:20.762Z,45.97
2023-04-18T14:22:21.815Z,45.98
2023-04-18T14:23:20.817Z,45.99
2023-04-18T14:24:20.889Z,46.01
2023-04-18T14:25:20.917Z,46.00
2023-04-18T14:26:22.049Z,45.98
2023-04-18T14:27:22.010Z,46.03
2023-04-18T14:28:22.060Z,46.05
2023-04-18T14:29:21.121Z,46.04
2023-04-18T14:30:21.149Z,46.04
2023-04-18T14:31:21.261Z,46.05
2023-04-18T14:32:22.275Z,46.04
2023-04-18T14:33:21.586Z,46.03
2023-04-18T14:34:21.345Z,46.06
2023-04-18T14:35:21.405Z,46.07
2023-04-18T14:36:21.409Z,46.09
2023-04-18T14:37:22.504Z,46.08
2023-04-18T14:38:22.530Z,46.06
2023-04-18T14:39:21.557Z,46.11
2023-04-18T14:40:21.608Z,46.12
2023-04-18T14:41:21.637Z,46.10
2023-04-18T14:42:21.686Z,46.09
2023-04-18T14:43:22.730Z,46.08
2023-04-18T14:44:21.767Z,46.13
2023-04-18T14:45:21.839Z,46.12
2023-04-18T14:46:21.863Z,46.11
2023-04-18T14:47:24.260Z,46.13
2023-04-18T14:48:23.032Z,46.15
2023-04-18T14:49:22.058Z,46.13
2023-04-18T14:50:22.130Z,46.14
2023-04-18T14:51:23.220Z,46.14
2023-04-18T14:52:23.228Z,46.14
2023-04-18T14:53:22.243Z,46.15
2023-04-18T14:54:23.281Z,46.16
2023-04-18T14:55:22.307Z,46.15
2023-04-18T14:56:23.368Z,46.17
2023-04-18T14:57:22.423Z,46.18
2023-04-18T14:58:23.453Z,46.15
2023-04-18T14:59:22.473Z,46.17
2023-04-18T15:00:23.529Z,46.15
2023-04-18T15:01:23.604Z,46.18
2023-04-18T15:02:22.769Z,46.17
2023-04-18T15:03:23.751Z,46.19
2023-04-18T15:04:23.819Z,46.19
2023-04-18T15:05:22.736Z,46.19
2023-04-18T15:06:23.815Z,46.19
2023-04-18T15:07:23.843Z,46.19
2023-04-18T15:08:23.882Z,46.21
2023-04-18T15:09:22.922Z,46.22
2023-04-18T15:10:23.999Z,46.24
2023-04-18T15:11:23.015Z,46.21
2023-04-18T15:12:24.070Z,46.23
2023-04-18T15:13:23.094Z,46.20
2023-04-18T15:14:24.157Z,46.24
2023-04-18T15:15:24.202Z,46.23
2023-04-18T15:16:24.277Z,46.23
2023-04-18T15:17:23.307Z,46.24
2023-04-18T15:18:23.335Z,46.25
2023-04-18T15:19:23.375Z,46.25
2023-04-18T15:20:24.441Z,46.24
2023-04-18T15:21:24.468Z,46.26
2023-04-18T15:22:24.524Z,46.25
2023-04-18T15:23:24.582Z,46.25
2023-04-18T15:24:24.621Z,46.28
2023-04-18T15:25:24.701Z,46.28
2023-04-18T15:26:24.750Z,46.27
2023-04-18T15:27:23.786Z,46.28
2023-04-18T15:28:24.915Z,46.29
2023-04-18T15:29:23.909Z,46.29
